createdAt,value
2022-08-12T00:02:17.147Z,68.44
2022-08-12T00:05:01.268Z,68.56
2022-08-12T00:07:46.732Z,69.69
2022-08-12T00:10:31.138Z,69.95
2022-08-12T00:13:13.421Z,71.00
2022-08-12T00:15:58.981Z,72.58
2022-08-12T00:18:42.259Z,73.11
2022-08-12T00:21:28.126Z,74.49
2022-08-12T00:24:10.321Z,74.70
2022-08-12T00:26:58.720Z,74.39
2022-08-12T00:29:43.635Z,74.04
2022-08-12T00:32:35.503Z,73.69
2022-08-12T00:35:20.503Z,73.44
2022-08-12T00:38:05.900Z,73.29
2022-08-12T00:40:48.184Z,73.60
2022-08-12T00:43:20.180Z,73.05
2022-08-12T00:46:03.662Z,72.62
2022-08-12T00:48:33.751Z,72.62
2022-08-12T00:51:06.255Z,73.85
2022-08-12T00:53:36.948Z,73.96
2022-08-12T00:56:08.235Z,74.63
2022-08-12T00:58:47.389Z,74.15
2022-08-12T01:01:18.195Z,72.39
2022-08-12T01:04:04.789Z,71.59
2022-08-12T01:06:51.073Z,71.89
2022-08-12T01:09:38.204Z,72.19
2022-08-12T01:12:11.512Z,72.57
2022-08-12T01:14:44.172Z,74.49
2022-08-12T01:17:13.519Z,73.94
2022-08-12T01:19:43.121Z,74.60
2022-08-12T01:22:27.629Z,74.83
2022-08-12T01:25:07.466Z,74.66
2022-08-12T01:27:40.409Z,74.02
2022-08-12T01:30:12.720Z,74.22
2022-08-12T01:32:43.507Z,73.51
2022-08-12T01:35:15.649Z,73.40
2022-08-12T01:37:51.854Z,73.59
2022-08-12T01:40:34.147Z,75.17
2022-08-12T01:43:09.877Z,76.06
2022-08-12T01:45:46.047Z,77.42
2022-08-12T01:48:26.753Z,78.24
2022-08-12T01:51:06.167Z,78.72
2022-08-12T01:53:50.559Z,79.67
2022-08-12T01:56:27.218Z,79.65
2022-08-12T01:59:16.872Z,79.12
2022-08-12T02:01:48.169Z,78.18
2022-08-12T02:04:38.735Z,78.79
2022-08-12T02:07:33.554Z,79.18
2022-08-12T02:10:49.141Z,78.80
2022-08-12T02:13:59.709Z,79.18
2022-08-12T02:16:48.273Z,79.73
2022-08-12T02:19:36.828Z,79.44
2022-08-12T02:22:18.766Z,80.21
2022-08-12T02:24:48.481Z,77.95
2022-08-12T02:27:21.279Z,78.90
2022-08-12T02:29:52.931Z,79.27
2022-08-12T02:32:23.816Z,79.33
2022-08-12T02:34:57.139Z,78.84
2022-08-12T02:37:29.871Z,78.70
2022-08-12T02:40:01.987Z,79.10
2022-08-12T02:42:35.818Z,78.59
2022-08-12T02:45:10.561Z,77.97
2022-08-12T02:47:59.770Z,77.55
2022-08-12T02:50:33.454Z,77.37
2022-08-12T02:53:04.355Z,77.42
2022-08-12T02:55:36.930Z,77.09
2022-08-12T02:58:09.112Z,76.60
2022-08-12T03:00:45.562Z,77.15
2022-08-12T03:03:16.533Z,77.06
2022-08-12T03:05:53.315Z,77.39
2022-08-12T03:08:32.651Z,77.19
2022-08-12T03:11:11.906Z,77.48
2022-08-12T03:13:47.611Z,76.91
2022-08-12T03:16:20.230Z,77.27
2022-08-12T03:18:51.680Z,76.78
2022-08-12T03:21:57.856Z,75.98
2022-08-12T03:24:18.319Z,74.86
2022-08-12T03:26:50.105Z,74.50
2022-08-12T03:29:22.885Z,74.04
2022-08-12T03:32:01.268Z,74.55
2022-08-12T03:34:36.181Z,72.86
2022-08-12T03:37:07.300Z,72.70
2022-08-12T03:39:44.847Z,72.15
2022-08-12T03:42:28.657Z,72.17
2022-08-12T03:45:23.189Z,71.59
2022-08-12T03:48:18.598Z,71.26
2022-08-12T03:51:02.244Z,71.03
2022-08-12T03:53:46.005Z,70.29
2022-08-12T03:56:28.421Z,69.34
2022-08-12T03:59:13.126Z,68.59
2022-08-12T04:01:42.310Z,68.12
2022-08-12T04:04:14.856Z,68.04
2022-08-12T04:06:46.630Z,67.36
2022-08-12T04:09:16.747Z,66.60
2022-08-12T04:12:06.138Z,66.06
2022-08-12T04:14:37.257Z,65.47
2022-08-12T04:17:07.951Z,64.46
2022-08-12T04:19:39.343Z,63.90
2022-08-12T04:22:09.601Z,63.46
2022-08-12T04:24:40.896Z,63.90
2022-08-12T04:27:10.516Z,63.48
2022-08-12T04:30:30.427Z,62.76
2022-08-12T04:32:33.664Z,62.49
2022-08-12T04:35:05.649Z,62.06
2022-08-12T04:37:58.776Z,61.98
2022-08-12T04:40:28.029Z,61.60
2022-08-12T04:43:00.838Z,60.88
2022-08-12T04:45:30.070Z,60.58
2022-08-12T04:47:59.249Z,59.96
2022-08-12T04:50:35.721Z,59.16
2022-08-12T04:53:08.488Z,59.07
2022-08-12T04:55:42.688Z,58.76
2022-08-12T04:58:12.330Z,58.55
2022-08-12T05:00:44.359Z,58.62
2022-08-12T05:03:14.654Z,58.43
2022-08-12T05:05:46.083Z,58.38
2022-08-12T05:08:17.491Z,58.30
2022-08-12T05:10:48.461Z,59.23
2022-08-12T05:13:21.062Z,59.65
2022-08-12T05:16:03.839Z,59.19
2022-08-12T05:18:39.242Z,58.92
2022-08-12T05:21:11.583Z,58.21
2022-08-12T05:23:42.643Z,58.19
2022-08-12T05:26:13.096Z,57.62
2022-08-12T05:28:42.734Z,57.48
2022-08-12T05:31:12.078Z,56.71
2022-08-12T05:33:41.671Z,56.47
2022-08-12T05:36:14.554Z,55.92
2022-08-12T05:38:57.836Z,56.16
2022-08-12T05:41:28.678Z,55.76
2022-08-12T05:44:01.036Z,55.20
2022-08-12T05:46:32.004Z,55.49
2022-08-12T05:49:02.384Z,55.25
2022-08-12T05:51:39.710Z,55.55
2022-08-12T05:54:12.530Z,55.63
2022-08-12T05:56:42.490Z,55.29
2022-08-12T05:59:13.662Z,55.87
2022-08-12T06:02:11.981Z,55.74
2022-08-12T06:04:34.196Z,55.45
2022-08-12T06:07:59.199Z,55.24
2022-08-12T06:09:58.402Z,54.76
2022-08-12T06:12:30.560Z,54.17
2022-08-12T06:14:59.933Z,54.72
2022-08-12T06:17:30.666Z,53.99
2022-08-12T06:20:25.966Z,54.27
2022-08-12T06:22:54.150Z,53.75
2022-08-12T06:25:28.668Z,54.17
2022-08-12T06:28:07.651Z,54.12
2022-08-12T06:30:40.248Z,53.70
2022-08-12T06:33:18.413Z,53.74
2022-08-12T06:35:51.998Z,52.79
2022-08-12T06:38:25.177Z,51.67
2022-08-12T06:41:09.553Z,51.11
2022-08-12T06:44:05.890Z,50.61
2022-08-12T06:46:30.924Z,50.61
2022-08-12T06:49:00.864Z,50.16
2022-08-12T06:51:32.929Z,49.38
2022-08-12T06:54:27.061Z,48.93
2022-08-12T06:58:05.662Z,48.67
2022-08-12T06:59:50.583Z,48.03
2022-08-12T07:02:22.577Z,47.87
2022-08-12T07:04:52.210Z,47.34
2022-08-12T07:07:21.403Z,45.98
2022-08-12T07:09:58.040Z,45.41
2022-08-12T07:12:37.130Z,46.42
2022-08-12T07:15:08.003Z,45.97
2022-08-12T07:17:40.441Z,46.15
2022-08-12T07:20:29.838Z,45.75
2022-08-12T07:23:03.721Z,45.84
2022-08-12T07:25:37.688Z,46.11
2022-08-12T07:28:15.990Z,45.30
2022-08-12T07:30:48.073Z,43.89
2022-08-12T07:33:17.686Z,45.16
2022-08-12T07:35:50.640Z,43.16
2022-08-12T07:38:29.426Z,42.74
2022-08-12T07:41:05.778Z,42.07
2022-08-12T07:43:39.212Z,41.90
2022-08-12T07:46:10.421Z,41.50
2022-08-12T07:48:42.062Z,41.96
2022-08-12T07:51:11.950Z,41.59
2022-08-12T07:54:00.734Z,41.89
2022-08-12T07:56:34.451Z,41.92
2022-08-12T07:59:03.884Z,41.57
2022-08-12T08:01:34.593Z,40.82
2022-08-12T08:04:19.359Z,40.38
2022-08-12T08:06:50.132Z,40.67
2022-08-12T08:09:23.453Z,40.72
2022-08-12T08:12:09.037Z,40.61
2022-08-12T08:14:40.119Z,40.61
2022-08-12T08:17:09.960Z,41.00
2022-08-12T08:20:02.291Z,39.38
2022-08-12T08:22:41.579Z,39.94
2022-08-12T08:25:34.826Z,40.33
2022-08-12T08:28:06.816Z,40.26
2022-08-12T08:30:38.596Z,40.31
2022-08-12T08:33:22.927Z,39.88
2022-08-12T08:35:54.374Z,40.23
2022-08-12T08:38:32.011Z,40.71
2022-08-12T08:42:15.682Z,39.74
2022-08-12T08:44:10.288Z,39.50
2022-08-12T08:46:39.483Z,40.03
2022-08-12T08:49:08.990Z,39.82
2022-08-12T08:51:38.577Z,39.23
2022-08-12T08:54:11.084Z,39.90
2022-08-12T08:56:49.624Z,39.74
2022-08-12T08:59:21.977Z,39.72
2022-08-12T09:01:51.314Z,39.65
2022-08-12T09:05:13.510Z,39.57
2022-08-12T09:07:51.267Z,39.75
2022-08-12T09:10:15.526Z,39.51
2022-08-12T09:16:02.034Z,39.77
2022-08-12T09:18:34.045Z,39.64
2022-08-12T09:21:06.398Z,40.40
2022-08-12T09:23:57.394Z,40.11
2022-08-12T09:26:28.852Z,39.35
2022-08-12T09:29:00.642Z,39.46
2022-08-12T09:32:04.065Z,38.59
2022-08-12T09:34:33.276Z,38.44
2022-08-12T09:37:20.099Z,38.18
2022-08-12T09:40:06.092Z,38.09
2022-08-12T09:43:15.253Z,38.09
2022-08-12T09:46:06.524Z,38.07
2022-08-12T09:48:44.670Z,37.97
2022-08-12T09:51:38.204Z,37.60
2022-08-12T09:54:31.641Z,36.77
2022-08-12T09:58:45.593Z,36.79
2022-08-12T10:00:17.453Z,36.49
2022-08-12T10:03:02.090Z,36.90
2022-08-12T10:06:26.848Z,36.78
2022-08-12T10:08:30.275Z,37.38
2022-08-12T10:11:18.620Z,36.51
2022-08-12T10:13:52.323Z,36.48
2022-08-12T10:16:23.781Z,36.75
2022-08-12T10:18:56.031Z,36.75
2022-08-12T10:21:36.305Z,36.20
2022-08-12T10:24:08.570Z,36.39
2022-08-12T10:26:52.716Z,36.58
2022-08-12T10:30:03.669Z,36.26
2022-08-12T10:32:44.402Z,36.91
2022-08-12T10:35:19.293Z,36.60
2022-08-12T10:38:37.521Z,36.05
2022-08-12T10:41:01.401Z,36.42
2022-08-12T10:43:54.159Z,36.12
2022-08-12T10:46:31.049Z,35.76
2022-08-12T10:49:05.366Z,36.14
2022-08-12T10:52:03.399Z,36.03
2022-08-12T10:54:27.710Z,35.28
2022-08-12T10:56:57.434Z,36.70
2022-08-12T11:00:31.778Z,35.49
2022-08-12T11:04:24.119Z,36.11
2022-08-12T11:07:09.588Z,35.46
2022-08-12T11:08:34.942Z,35.26
2022-08-12T11:10:53.069Z,34.79
2022-08-12T11:13:46.921Z,35.54
2022-08-12T11:16:22.522Z,34.50
2022-08-12T11:18:55.271Z,34.25
2022-08-12T11:21:56.235Z,34.52
2022-08-12T11:24:30.414Z,34.97
2022-08-12T11:27:07.657Z,35.46
2022-08-12T11:30:05.904Z,35.91
2022-08-12T11:32:29.516Z,35.15
2022-08-12T11:35:09.163Z,35.26
2022-08-12T11:37:57.655Z,34.31
2022-08-12T11:40:29.894Z,34.44
2022-08-12T11:43:18.784Z,34.04
2022-08-12T11:45:53.291Z,34.49
2022-08-12T11:48:26.717Z,34.92
2022-08-12T11:50:59.009Z,34.66
2022-08-12T11:53:56.398Z,34.77
2022-08-12T11:56:17.373Z,33.97
2022-08-12T12:02:02.016Z,34.84
2022-08-12T12:04:29.475Z,35.29
2022-08-12T12:07:07.458Z,35.17
2022-08-12T12:09:52.814Z,35.12
2022-08-12T12:12:25.262Z,35.00
2022-08-12T12:15:00.485Z,34.74
2022-08-12T12:17:38.807Z,33.90
2022-08-12T12:20:10.442Z,34.24
2022-08-12T12:22:41.572Z,33.54
2022-08-12T12:25:14.550Z,33.64
2022-08-12T12:28:05.769Z,33.76
2022-08-12T12:30:38.473Z,34.00
2022-08-12T12:33:08.150Z,34.08
2022-08-12T12:36:17.122Z,34.37
2022-08-12T12:38:29.799Z,33.58
2022-08-12T12:40:59.013Z,32.93
2022-08-12T12:43:42.491Z,32.84
2022-08-12T12:46:14.821Z,32.87
2022-08-12T12:48:44.858Z,33.46
2022-08-12T12:57:36.145Z,33.60
2022-08-12T13:00:19.273Z,33.48
2022-08-12T13:02:55.225Z,33.80
2022-08-12T13:05:28.262Z,34.01
2022-08-12T13:08:00.644Z,33.69
2022-08-12T13:10:37.110Z,33.14
2022-08-12T13:14:08.161Z,32.79
2022-08-12T13:15:59.959Z,32.93
2022-08-12T13:18:36.365Z,32.44
2022-08-12T13:21:15.871Z,31.85
2022-08-12T13:23:58.717Z,32.40
2022-08-12T13:26:32.637Z,33.12
2022-08-12T13:29:05.418Z,32.97
2022-08-12T13:31:36.264Z,31.53
2022-08-12T13:34:33.583Z,31.74
2022-08-12T13:37:09.176Z,31.39
2022-08-12T13:39:39.786Z,32.59
2022-08-12T13:42:14.686Z,31.41
2022-08-12T13:44:46.775Z,30.68
2022-08-12T13:47:19.439Z,31.21
2022-08-12T13:49:53.681Z,32.20
2022-08-12T13:52:25.685Z,32.19
2022-08-12T13:54:56.636Z,32.17
2022-08-12T13:57:27.072Z,32.15
2022-08-12T14:00:13.836Z,31.36
2022-08-12T14:02:44.569Z,31.05
2022-08-12T14:05:38.395Z,31.80
2022-08-12T14:08:05.624Z,31.38
2022-08-12T14:10:50.896Z,32.00
2022-08-12T14:14:03.375Z,32.02
2022-08-12T14:16:37.525Z,32.92
2022-08-12T14:19:10.605Z,32.45
2022-08-12T14:22:01.633Z,32.40
2022-08-12T14:24:36.645Z,32.14
2022-08-12T14:27:11.666Z,32.53
2022-08-12T14:30:03.982Z,31.85
2022-08-12T14:32:36.602Z,31.16
2022-08-12T14:35:06.310Z,31.72
2022-08-12T14:37:56.713Z,32.25
2022-08-12T14:40:30.431Z,31.58
2022-08-12T14:42:59.890Z,32.34
2022-08-12T14:45:44.260Z,31.76
2022-08-12T14:48:24.424Z,31.72
2022-08-12T14:51:30.369Z,31.76
2022-08-12T14:55:36.209Z,32.61
2022-08-12T14:57:19.438Z,31.98
2022-08-12T14:59:56.478Z,32.08
2022-08-12T15:02:28.110Z,32.36
2022-08-12T15:05:01.856Z,32.50
2022-08-12T15:07:48.708Z,32.56
2022-08-12T15:10:32.474Z,33.57
2022-08-12T15:13:07.361Z,32.46
2022-08-12T15:15:43.983Z,32.94
2022-08-12T15:18:21.117Z,33.01
2022-08-12T15:20:55.493Z,33.78
2022-08-12T15:23:29.131Z,33.62
2022-08-12T15:26:04.691Z,32.56
2022-08-12T15:28:36.788Z,32.88
2022-08-12T15:31:09.575Z,33.24
2022-08-12T15:33:51.302Z,32.80
2022-08-12T15:36:54.635Z,33.35
2022-08-12T15:39:17.154Z,33.51
2022-08-12T15:41:49.144Z,33.57
2022-08-12T15:44:37.835Z,32.79
2022-08-12T15:47:10.339Z,33.22
2022-08-12T15:49:54.710Z,33.42
2022-08-12T15:52:40.766Z,33.24
2022-08-12T15:55:16.757Z,32.78
2022-08-12T15:57:53.891Z,33.33
2022-08-12T16:00:33.366Z,33.38
2022-08-12T16:03:08.452Z,33.48
2022-08-12T16:06:15.678Z,33.32
2022-08-12T16:08:39.341Z,33.90
2022-08-12T16:11:15.580Z,34.03
2022-08-12T16:13:55.698Z,34.63
2022-08-12T16:16:25.334Z,35.11
2022-08-12T16:19:00.774Z,35.41
2022-08-12T16:21:50.355Z,35.31
2022-08-12T16:24:23.967Z,35.78
2022-08-12T16:26:55.147Z,35.52
2022-08-12T16:29:49.392Z,35.64
2022-08-12T16:32:24.282Z,36.31
2022-08-12T16:34:58.739Z,36.47
2022-08-12T16:38:25.219Z,36.76
2022-08-12T16:40:25.938Z,36.66
2022-08-12T16:43:01.975Z,37.34
2022-08-12T16:46:23.521Z,37.25
2022-08-12T16:48:35.339Z,37.66
2022-08-12T16:51:10.110Z,37.77
2022-08-12T16:53:43.660Z,37.58
2022-08-12T16:56:18.243Z,38.21
2022-08-12T16:58:48.955Z,38.46
2022-08-12T17:01:21.802Z,38.07
2022-08-12T17:04:08.649Z,38.39
2022-08-12T17:06:43.229Z,38.68
2022-08-12T17:09:18.046Z,38.77
2022-08-12T17:11:53.350Z,39.54
2022-08-12T17:14:24.875Z,40.01
2022-08-12T17:17:01.099Z,40.17
2022-08-12T17:20:29.642Z,40.52
2022-08-12T17:22:25.732Z,40.95
2022-08-12T17:25:02.424Z,40.93
2022-08-12T17:27:40.142Z,41.28
2022-08-12T17:30:13.360Z,41.63
2022-08-12T17:32:53.284Z,41.42
2022-08-12T17:35:30.021Z,41.44
2022-08-12T17:38:09.595Z,41.42
2022-08-12T17:40:42.347Z,41.76
2022-08-12T17:43:54.923Z,41.72
2022-08-12T17:46:13.152Z,42.36
2022-08-12T17:49:18.817Z,42.36
2022-08-12T17:52:02.728Z,43.40
2022-08-12T17:54:34.306Z,43.44
2022-08-12T17:57:16.160Z,43.50
2022-08-12T17:59:51.496Z,43.98
2022-08-12T18:02:25.582Z,43.97
2022-08-12T18:05:05.028Z,44.00
2022-08-12T18:07:39.870Z,44.22
2022-08-12T18:10:10.662Z,44.47
2022-08-12T18:12:42.757Z,44.57
2022-08-12T18:15:26.530Z,45.18
2022-08-12T18:18:17.135Z,45.60
2022-08-12T18:20:49.761Z,45.70
2022-08-12T18:23:23.606Z,46.03
2022-08-12T18:26:13.919Z,46.02
2022-08-12T18:28:48.391Z,46.47
2022-08-12T18:31:22.885Z,45.69
2022-08-12T18:33:54.456Z,46.63
2022-08-12T18:36:31.890Z,46.51
2022-08-12T18:39:04.148Z,46.94
2022-08-12T18:41:35.408Z,46.78
2022-08-12T18:44:09.804Z,46.90
2022-08-12T18:47:01.835Z,46.83
2022-08-12T18:49:39.337Z,46.81
2022-08-12T18:52:11.887Z,47.23
2022-08-12T18:54:49.093Z,47.06
2022-08-12T18:58:07.204Z,47.14
2022-08-12T19:00:18.622Z,47.38
2022-08-12T19:02:54.133Z,47.93
2022-08-12T19:05:24.756Z,47.89
2022-08-12T19:11:19.052Z,48.27
2022-08-12T19:14:01.952Z,48.23
2022-08-12T19:16:38.155Z,48.07
2022-08-12T19:19:11.412Z,48.72
2022-08-12T19:21:56.459Z,49.41
2022-08-12T19:24:46.507Z,49.20
2022-08-12T19:27:17.705Z,49.63
2022-08-12T19:30:06.896Z,49.38
2022-08-12T19:32:41.151Z,49.29
2022-08-12T19:38:07.108Z,48.98
2022-08-12T19:40:38.603Z,49.14
2022-08-12T19:43:19.654Z,49.21
2022-08-12T19:45:53.851Z,49.14
2022-08-12T19:48:27.461Z,48.69
2022-08-12T19:51:01.435Z,48.82
2022-08-12T19:53:40.361Z,49.05
2022-08-12T19:56:28.105Z,48.95
2022-08-12T19:59:15.735Z,49.12
2022-08-12T20:02:03.144Z,49.04
2022-08-12T20:04:37.170Z,49.55
2022-08-12T20:07:23.683Z,49.62
2022-08-12T20:09:54.912Z,49.66
2022-08-12T20:12:31.578Z,49.94
2022-08-12T20:15:05.578Z,49.68
2022-08-12T20:17:36.253Z,49.92
2022-08-12T20:20:21.265Z,50.02
2022-08-12T20:23:00.104Z,49.73
2022-08-12T20:25:58.664Z,49.83
2022-08-12T20:28:25.336Z,50.45
2022-08-12T20:30:59.854Z,50.57
2022-08-12T20:33:32.599Z,50.27
2022-08-12T20:36:40.825Z,52.37
2022-08-12T20:39:37.157Z,53.86
2022-08-12T20:42:07.561Z,55.77
2022-08-12T20:44:39.881Z,56.67
2022-08-12T20:47:18.089Z,57.85
2022-08-12T20:49:54.837Z,59.43
2022-08-12T20:52:35.720Z,60.04
2022-08-12T20:55:15.893Z,60.55
2022-08-12T20:58:02.578Z,60.28
2022-08-12T21:00:34.337Z,60.94
2022-08-12T21:03:34.880Z,60.88
2022-08-12T21:06:17.550Z,60.85
2022-08-12T21:08:47.331Z,59.21
2022-08-12T21:11:20.263Z,58.37
2022-08-12T21:13:49.789Z,57.70
2022-08-12T21:16:35.327Z,56.79
2022-08-12T21:19:07.939Z,56.98
2022-08-12T21:21:49.959Z,57.42
2022-08-12T21:24:20.382Z,57.22
2022-08-12T21:27:57.850Z,57.15
2022-08-12T21:30:37.611Z,56.87
2022-08-12T21:33:14.623Z,56.99
2022-08-12T21:35:50.210Z,58.37
2022-08-12T21:38:19.750Z,59.37
2022-08-12T21:40:53.744Z,59.54
2022-08-12T21:43:26.656Z,60.97
2022-08-12T21:46:08.245Z,60.44
2022-08-12T21:48:57.586Z,60.32
2022-08-12T21:51:48.951Z,59.07
2022-08-12T21:54:21.969Z,60.59
2022-08-12T21:56:52.655Z,62.05
2022-08-12T21:59:25.105Z,62.50
2022-08-12T22:01:54.453Z,62.26
2022-08-12T22:04:40.701Z,61.15
2022-08-12T22:07:19.117Z,60.05
2022-08-12T22:09:57.228Z,59.16
2022-08-12T22:12:37.527Z,59.08
2022-08-12T22:15:21.886Z,59.32
2022-08-12T22:17:55.440Z,59.28
2022-08-12T22:20:29.617Z,59.64
2022-08-12T22:23:04.787Z,60.45
2022-08-12T22:25:40.052Z,60.53
2022-08-12T22:28:24.533Z,62.20
2022-08-12T22:31:09.102Z,63.82
2022-08-12T22:33:53.893Z,63.63
2022-08-12T22:36:29.128Z,64.42
2022-08-12T22:39:00.278Z,65.47
2022-08-12T22:41:43.169Z,65.89
2022-08-12T22:44:27.980Z,66.12
2022-08-12T22:47:12.233Z,66.77
2022-08-12T22:49:53.530Z,66.87
2022-08-12T22:52:29.193Z,67.56
2022-08-12T22:55:05.661Z,68.50
2022-08-12T22:57:49.308Z,68.53
2022-08-12T23:00:28.750Z,68.63
2022-08-12T23:03:03.564Z,69.75
2022-08-12T23:05:57.547Z,70.24
2022-08-12T23:08:30.206Z,70.24
2022-08-12T23:11:04.655Z,69.88
2022-08-12T23:13:55.091Z,69.62
2022-08-12T23:16:31.847Z,69.44
2022-08-12T23:19:11.035Z,67.96
2022-08-12T23:22:06.513Z,66.97
2022-08-12T23:24:53.925Z,67.07
2022-08-12T23:27:50.146Z,68.24
2022-08-12T23:30:32.379Z,67.03
2022-08-12T23:33:13.522Z,66.44
2022-08-12T23:35:58.880Z,65.17
2022-08-12T23:38:34.072Z,64.66
2022-08-12T23:41:05.381Z,64.40
2022-08-12T23:43:39.370Z,65.32
2022-08-12T23:46:18.441Z,65.94
2022-08-12T23:48:52.047Z,66.62
2022-08-12T23:51:26.325Z,66.96
2022-08-12T23:54:06.729Z,66.97
2022-08-12T23:56:39.084Z,67.61
2022-08-12T23:59:16.686Z,68.17
